createdAt,value
2022-12-01T08:46:20.267Z,3.60
2022-12-01T08:48:48.635Z,3.30
2022-12-01T08:51:18.322Z,3.20
2022-12-01T08:53:49.032Z,3.30
2022-12-01T08:56:20.251Z,3.30
2022-12-01T08:58:48.601Z,3.40
2022-12-01T09:01:19.869Z,3.50
2022-12-01T09:03:48.402Z,3.40
2022-12-01T09:06:20.109Z,3.20
2022-12-01T09:08:48.676Z,3.30
2022-12-01T09:11:18.975Z,3.40
2022-12-01T09:13:54.317Z,3.30
2022-12-01T09:16:24.209Z,3.20
2022-12-01T09:18:52.367Z,3.20
2022-12-01T09:21:23.545Z,3.40
2022-12-01T09:23:52.178Z,3.20
2022-12-01T09:26:21.286Z,3.30
2022-12-01T09:28:50.784Z,3.50
2022-12-01T09:31:20.661Z,3.60
2022-12-01T09:33:54.938Z,3.50
2022-12-01T09:36:23.133Z,3.60
2022-12-01T09:38:51.470Z,3.60
2022-12-01T09:41:22.441Z,3.40
2022-12-01T09:44:00.040Z,3.30
2022-12-01T09:46:33.801Z,3.30
2022-12-01T09:49:05.127Z,3.50
2022-12-01T09:51:37.459Z,3.80
2022-12-01T09:54:05.803Z,3.70
2022-12-01T09:56:40.912Z,3.60
2022-12-01T09:59:17.688Z,3.50
2022-12-01T10:01:50.280Z,3.60
2022-12-01T10:04:26.446Z,3.50
2022-12-01T10:07:01.263Z,3.50
2022-12-01T10:09:36.720Z,3.70
2022-12-01T10:12:14.708Z,3.60
2022-12-01T10:14:47.255Z,3.80
2022-12-01T10:17:28.805Z,3.60
2022-12-01T10:20:04.121Z,3.60
2022-12-01T10:23:08.011Z,3.70
2022-12-01T10:25:44.194Z,3.80
2022-12-01T10:28:33.204Z,3.70
2022-12-01T10:31:10.741Z,3.50
2022-12-01T10:33:50.113Z,3.60
2022-12-01T10:36:19.587Z,3.40
2022-12-01T10:38:47.999Z,3.80
2022-12-01T10:41:19.826Z,3.80
2022-12-01T10:43:52.268Z,3.80
2022-12-01T10:46:25.395Z,3.60
2022-12-01T10:48:55.887Z,3.80
2022-12-01T10:51:26.826Z,3.80
2022-12-01T10:54:00.157Z,3.90
2022-12-01T10:56:28.629Z,3.90
2022-12-01T10:59:00.320Z,3.90
2022-12-01T11:01:31.956Z,3.90
2022-12-01T11:09:05.406Z,3.90
2022-12-01T11:11:37.013Z,4.10
2022-12-01T11:14:07.559Z,3.80
2022-12-01T11:16:42.093Z,3.70
2022-12-01T11:19:27.493Z,3.80
2022-12-01T11:21:59.713Z,3.90
2022-12-01T11:24:40.271Z,3.70
2022-12-01T11:27:16.804Z,3.90
2022-12-01T11:29:47.225Z,3.90
2022-12-01T11:32:23.448Z,4.00
2022-12-01T11:34:55.473Z,3.80
2022-12-01T11:37:29.973Z,4.00
2022-12-01T11:40:13.696Z,4.00
2022-12-01T11:42:42.595Z,3.90
2022-12-01T11:45:32.349Z,3.80
2022-12-01T11:48:06.515Z,3.70
2022-12-01T11:50:36.996Z,4.00
2022-12-01T11:53:05.740Z,4.00
2022-12-01T11:55:33.815Z,4.00
2022-12-01T11:58:05.380Z,4.00
2022-12-01T12:00:46.780Z,4.00
2022-12-01T12:03:29.289Z,3.90
2022-12-01T12:06:39.582Z,3.80
2022-12-01T12:09:18.063Z,3.80
2022-12-01T12:11:54.433Z,4.20
2022-12-01T12:17:18.874Z,4.20
2022-12-01T12:20:08.819Z,4.30
2022-12-01T12:22:55.433Z,4.00
2022-12-01T12:28:07.522Z,3.80
2022-12-01T12:30:43.583Z,4.20
2022-12-01T12:33:39.006Z,3.90
2022-12-01T12:36:20.093Z,4.00
2022-12-01T12:39:02.811Z,3.90
2022-12-01T12:41:40.116Z,3.90
2022-12-01T12:44:38.573Z,4.20
2022-12-01T14:32:46.584Z,4.10
2022-12-01T14:35:16.198Z,4.30
2022-12-01T14:37:49.526Z,3.90
2022-12-01T14:40:25.863Z,4.20
2022-12-01T14:43:15.382Z,4.30
2022-12-01T14:45:56.566Z,4.00
2022-12-01T14:48:29.455Z,4.00
2022-12-01T14:51:17.218Z,3.80
2022-12-01T14:53:47.453Z,4.00
2022-12-01T14:56:19.624Z,4.10
2022-12-01T14:58:56.316Z,4.00
2022-12-01T15:01:25.548Z,4.20
2022-12-01T15:03:58.651Z,3.90
2022-12-01T15:06:29.219Z,4.10
2022-12-01T15:09:33.084Z,4.10
2022-12-01T15:12:03.725Z,4.20
2022-12-01T16:36:05.343Z,4.30
2022-12-01T16:41:03.630Z,3.80
2022-12-01T16:43:31.790Z,3.60
2022-12-01T16:46:03.191Z,3.70
2022-12-01T16:48:32.024Z,3.60
2022-12-01T16:51:04.642Z,3.80
2022-12-01T16:53:32.949Z,3.60
2022-12-01T16:56:03.342Z,3.70
2022-12-01T16:58:31.538Z,3.50
2022-12-01T17:00:59.899Z,3.40
2022-12-01T17:03:30.017Z,3.50
2022-12-01T17:06:00.873Z,3.50
2022-12-01T17:08:29.614Z,3.50
2022-12-01T17:10:57.905Z,3.30
2022-12-01T17:13:26.096Z,3.50
2022-12-01T17:15:55.852Z,3.40
2022-12-01T17:21:01.903Z,3.10
2022-12-01T17:23:30.305Z,3.20
2022-12-01T17:25:58.456Z,3.30
2022-12-01T17:28:26.806Z,3.40
2022-12-01T17:30:55.078Z,3.20
2022-12-01T22:57:00.083Z,3.50
2022-12-01T22:59:34.407Z,3.40
